Time;durP1;ratioP1;P1;durP2;ratioP2;P2;SDS_P1;SDS_P2;PMS_P1;PMS_P2;Temp;Humidity;BMP_temperature;BMP_pressure;BME280_temperature;BME280_humidity;BME280_pressure;Samples;Min_cycle;Max_cycle;Signal;HPM_P1;HPM_P2
2021/01/20 00:02:32;;;;;;;87.65;38.72;;;;;;;-2.97;70.68;101058.34;5050365;28;20080;-76
2021/01/20 00:05:33;;;;;;;55.40;25.20;;;;;;;-3.09;71.22;101060.28;5051293;28;20037;-76
2021/01/20 00:08:14;;;;;;;66.03;32.08;;;;;;;-2.98;70.29;101045.06;5050174;28;20060;-76
2021/01/20 00:10:46;;;;;;;63.10;31.77;;;;;;;-2.85;70.42;101053.88;5052900;28;20028;-75
2021/01/20 00:13:18;;;;;;;72.30;35.15;;;;;;;-2.79;70.69;101059.09;5055190;28;20476;-76
2021/01/20 00:15:44;;;;;;;91.28;43.78;;;;;;;-3.29;70.40;101049.47;5053510;28;20437;-76
2021/01/20 00:18:15;;;;;;;84.28;42.90;;;;;;;-2.98;70.32;101076.53;5053967;28;20044;-76
2021/01/20 00:20:48;;;;;;;87.53;41.88;;;;;;;-3.49;71.34;101069.22;5055067;28;20025;-76
2021/01/20 00:23:15;;;;;;;81.25;38.53;;;;;;;-2.97;70.32;101069.13;5066587;28;20081;-75
2021/01/20 00:25:44;;;;;;;69.28;34.65;;;;;;;-3.06;71.52;101066.25;5058464;28;20025;-76
2021/01/20 00:28:18;;;;;;;71.30;34.70;;;;;;;-2.85;70.49;101056.34;5053798;28;20493;-75
2021/01/20 00:30:57;;;;;;;60.70;30.33;;;;;;;-3.69;71.75;101063.34;5054751;28;20487;-76
2021/01/20 00:33:35;;;;;;;62.75;31.52;;;;;;;-3.41;71.17;101040.63;5053532;28;20071;-76
2021/01/20 00:36:16;;;;;;;63.92;31.83;;;;;;;-2.79;70.77;101042.56;5053315;28;20048;-75
2021/01/20 00:38:58;;;;;;;71.07;33.37;;;;;;;-3.24;71.21;101042.19;5053388;28;20052;-76
2021/01/20 00:41:39;;;;;;;66.00;32.30;;;;;;;-3.27;71.38;101067.78;5053477;28;20447;-76
2021/01/20 00:44:22;;;;;;;66.35;32.15;;;;;;;-3.33;71.29;101037.69;5053159;28;20398;-76
2021/01/20 00:46:48;;;;;;;63.55;32.25;;;;;;;-3.03;71.38;101055.59;5054295;28;20095;-75
2021/01/20 00:49:18;;;;;;;69.82;34.92;;;;;;;-2.90;72.08;101056.19;5054570;28;20494;-76
2021/01/20 00:51:55;;;;;;;64.10;33.95;;;;;;;-3.06;70.92;101031.44;5056627;28;20025;-75
2021/01/20 00:54:21;;;;;;;71.18;36.67;;;;;;;-3.03;70.50;101043.16;5056977;28;20108;-75
2021/01/20 00:56:47;;;;;;;77.53;38.33;;;;;;;-2.92;71.07;101037.84;5058457;28;20021;-75
2021/01/20 00:59:12;;;;;;;85.30;44.45;;;;;;;-3.12;72.11;101045.22;5059664;28;20380;-75
2021/01/20 01:01:38;;;;;;;94.35;45.90;;;;;;;-3.08;71.98;101045.44;5060983;28;20433;-76
2021/01/20 01:04:04;;;;;;;98.32;49.50;;;;;;;-3.32;71.77;101038.53;5063225;28;20032;-76
2021/01/20 01:06:40;;;;;;;101.78;50.42;;;;;;;-3.29;70.94;101054.44;5060101;28;20384;-76
2021/01/20 01:09:31;;;;;;;100.43;51.08;;;;;;;-3.07;70.71;101049.59;5057775;28;20108;-76
2021/01/20 01:12:44;;;;;;;97.65;46.70;;;;;;;-2.95;71.12;101045.16;5053122;28;20036;-76
2021/01/20 01:15:17;;;;;;;103.47;50.80;;;;;;;-3.75;72.36;101055.63;5054413;28;20041;-75
2021/01/20 01:17:49;;;;;;;95.18;48.15;;;;;;;-3.55;71.95;101049.94;5055500;28;20049;-76
2021/01/20 01:20:48;;;;;;;93.50;46.88;;;;;;;-3.75;72.40;101051.50;5052844;28;20036;-75
2021/01/20 01:23:14;;;;;;;87.88;44.60;;;;;;;-3.63;73.08;101058.69;5052436;28;20033;-76
2021/01/20 01:25:40;;;;;;;84.68;42.88;;;;;;;-3.80;73.38;101065.34;5053541;28;20021;-75
2021/01/20 01:28:27;;;;;;;82.00;41.40;;;;;;;-3.14;72.40;101056.75;5053642;28;20464;-76
2021/01/20 01:31:06;;;;;;;77.97;40.97;;;;;;;-3.07;72.02;101054.59;5052745;28;20060;-76
2021/01/20 01:33:39;;;;;;;78.40;39.58;;;;;;;-3.66;72.52;101041.13;5052337;28;20033;-77
2021/01/20 01:36:15;;;;;;;73.07;38.75;;;;;;;-3.38;72.10;101046.56;5053591;28;20047;-76
2021/01/20 01:39:27;;;;;;;75.13;37.40;;;;;;;-3.46;73.10;101050.34;5053550;28;20549;-76
2021/01/20 01:42:09;;;;;;;75.22;37.42;;;;;;;-3.88;74.10;101033.50;5052194;28;20498;-76
2021/01/20 01:44:49;;;;;;;68.97;35.63;;;;;;;-3.59;72.23;101055.56;5052302;28;20104;-75
2021/01/20 01:47:29;;;;;;;72.13;37.63;;;;;;;-3.67;72.24;101060.16;5053272;28;20494;-76
2021/01/20 01:50:08;;;;;;;69.07;35.60;;;;;;;-3.58;72.64;101059.72;5052259;28;20028;-76
2021/01/20 01:52:51;;;;;;;69.53;34.55;;;;;;;-3.64;72.89;101067.75;5069184;28;20049;-76
2021/01/20 01:58:38;;;;;;;72.67;35.40;;;;;;;-3.87;72.97;101070.81;5053390;28;20544;-76
2021/01/20 02:01:12;;;;;;;79.85;41.00;;;;;;;-4.11;74.83;101052.28;5051957;28;20447;-76
2021/01/20 02:03:53;;;;;;;75.72;38.67;;;;;;;-3.70;73.80;101059.16;5052944;28;20025;-76
2021/01/20 02:06:34;;;;;;;80.35;38.92;;;;;;;-3.75;72.88;101076.34;5051579;28;20036;-76
2021/01/20 02:09:00;;;;;;;55.00;27.60;;;;;;;-3.41;72.92;101075.41;5051707;28;20064;-76
2021/01/20 02:11:52;;;;;;;71.40;34.80;;;;;;;-3.38;72.82;101087.94;5051691;28;20033;-75
2021/01/20 02:15:00;;;;;;;68.45;36.35;;;;;;;-3.58;72.19;101079.59;5051728;28;20043;-76
2021/01/20 02:18:06;;;;;;;71.90;36.88;;;;;;;-3.71;73.49;101078.19;5051563;28;20068;-76
2021/01/20 02:23:56;;;;;;;88.38;46.15;;;;;;;-4.14;74.81;101071.97;5052595;28;20429;-76
2021/01/20 02:27:02;;;;;;;92.93;45.53;;;;;;;-3.66;73.65;101068.44;5052531;28;20047;-75
2021/01/20 02:29:57;;;;;;;92.10;45.90;;;;;;;-3.88;73.38;101063.28;5051740;28;20048;-76
2021/01/20 02:32:25;;;;;;;89.22;44.47;;;;;;;-3.96;75.00;101054.63;5051925;28;20073;-76
2021/01/20 02:35:10;;;;;;;89.32;45.72;;;;;;;-4.36;75.55;101059.31;5051052;28;20111;-75
2021/01/20 02:37:39;;;;;;;88.65;43.50;;;;;;;-3.89;74.52;101055.00;5055839;28;20025;-73
2021/01/20 02:40:59;;;;;;;85.03;41.58;;;;;;;-3.88;73.45;101048.41;5053626;28;20051;-75
2021/01/20 02:44:00;;;;;;;81.85;42.08;;;;;;;-4.23;74.02;101063.22;5051380;28;20490;-76
2021/01/20 02:46:40;;;;;;;82.90;41.50;;;;;;;-3.53;73.74;101064.09;5052006;28;20120;-75
2021/01/20 02:49:16;;;;;;;87.68;42.42;;;;;;;-3.96;73.17;101067.88;5052257;28;20021;-76
2021/01/20 02:52:18;;;;;;;84.43;41.08;;;;;;;-4.20;74.11;101073.31;5051656;28;20032;-75
2021/01/20 02:55:20;;;;;;;77.20;38.15;;;;;;;-4.34;74.51;101079.25;5051884;28;20036;-76
2021/01/20 02:58:00;;;;;;;78.53;38.35;;;;;;;-4.14;75.10;101074.44;5051186;28;20090;-75
2021/01/20 03:00:55;;;;;;;75.82;38.42;;;;;;;-4.33;74.28;101085.88;5051812;28;20044;-75
2021/01/20 03:03:24;;;;;;;63.08;33.35;;;;;;;-4.21;74.01;101072.47;5052037;28;20481;-75
2021/01/20 03:06:05;;;;;;;59.28;30.85;;;;;;;-3.67;73.25;101061.78;5051816;28;20033;-75
2021/01/20 03:08:50;;;;;;;63.05;33.15;;;;;;;-4.41;74.60;101073.97;5051927;28;20108;-76
2021/01/20 03:11:17;;;;;;;59.53;31.23;;;;;;;-4.19;74.24;101070.03;5051874;28;20154;-76
2021/01/20 03:14:04;;;;;;;64.55;33.03;;;;;;;-4.23;75.77;101063.22;5051885;28;20031;-76
2021/01/20 03:16:30;;;;;;;71.95;35.45;;;;;;;-4.32;75.19;101067.75;5050593;28;20052;-76
2021/01/20 03:18:56;;;;;;;75.75;34.75;;;;;;;-3.94;74.95;101055.56;5052369;28;20494;-76
2021/01/20 03:21:35;;;;;;;67.82;34.25;;;;;;;-3.98;75.24;101058.69;5063418;28;20082;-76
2021/01/20 03:24:37;;;;;;;63.58;31.63;;;;;;;-3.61;73.07;101054.63;5051590;28;20033;-75
2021/01/20 03:27:07;;;;;;;67.00;33.45;;;;;;;-4.17;74.31;101051.97;5050950;28;20090;-75
2021/01/20 03:29:49;;;;;;;64.72;33.90;;;;;;;-4.03;73.91;101043.56;5052254;28;20041;-75
2021/01/20 03:32:14;;;;;;;;;;;;;;;-4.10;74.28;101044.03;5052324;28;20543;-76
2021/01/20 03:34:48;;;;;;;71.90;37.90;;;;;;;-4.34;74.15;101022.19;5067117;28;20015;-76
2021/01/20 03:37:28;;;;;;;83.10;42.22;;;;;;;-4.21;74.32;101021.97;5050486;28;20029;-75
2021/01/20 03:40:00;;;;;;;90.10;43.80;;;;;;;-3.98;74.62;101036.34;5051825;28;20031;-75
2021/01/20 03:42:28;;;;;;;94.68;46.75;;;;;;;-4.47;74.85;101020.72;5051543;28;20095;-76
2021/01/20 03:45:27;;;;;;;83.13;42.92;;;;;;;-4.04;75.22;101036.88;5052615;28;20037;-76
2021/01/20 03:47:53;;;;;;;85.50;43.33;;;;;;;-4.17;74.92;101042.06;5054303;28;20178;-76
2021/01/20 03:50:39;;;;;;;78.65;41.67;;;;;;;-4.06;74.50;101045.88;5054646;28;20029;-77
2021/01/20 03:53:31;;;;;;;56.15;30.63;;;;;;;-4.23;74.41;101045.84;5055635;28;20025;-76
2021/01/20 03:56:06;;;;;;;50.80;23.55;;;;;;;-4.31;74.18;101057.03;5055399;28;20111;-76
2021/01/20 03:58:31;;;;;;;48.25;23.98;;;;;;;-5.03;76.22;101049.31;5057420;28;20036;-76
2021/01/20 04:01:12;;;;;;;48.53;23.10;;;;;;;-4.65;75.29;101060.34;5058818;28;20082;-76
2021/01/20 04:04:18;;;;;;;31.10;15.47;;;;;;;-4.59;75.54;101069.72;5054338;28;20029;-75
2021/01/20 04:06:53;;;;;;;40.55;19.70;;;;;;;-4.36;74.30;101060.94;5054061;28;20033;-76
2021/01/20 04:09:53;;;;;;;37.45;20.42;;;;;;;-4.55;75.44;101079.03;5053947;28;20544;-76
2021/01/20 04:12:24;;;;;;;38.33;18.15;;;;;;;-4.29;75.97;101087.75;5055045;28;20113;-75
2021/01/20 04:15:35;;;;;;;38.55;18.58;;;;;;;-4.21;74.04;101079.91;5054238;28;20021;-75
2021/01/20 04:18:16;;;;;;;37.03;19.27;;;;;;;-4.58;75.34;101083.84;5053787;28;20498;-78
2021/01/20 04:24:02;;;;;;;43.75;20.90;;;;;;;-4.72;75.44;101082.28;5054823;28;20040;-77
2021/01/20 04:26:35;;;;;;;41.17;20.17;;;;;;;-4.02;75.15;101066.75;5053361;28;20021;-77
2021/01/20 04:29:16;;;;;;;43.85;22.20;;;;;;;-4.87;75.17;101059.22;5053769;28;20434;-75
2021/01/20 04:31:57;;;;;;;43.45;22.60;;;;;;;-4.59;74.09;101044.94;5052840;28;20040;-76
2021/01/20 04:34:25;;;;;;;50.58;23.85;;;;;;;-4.60;75.15;101091.22;5053290;28;20110;-80
2021/01/20 04:36:52;;;;;;;51.15;26.40;;;;;;;-4.20;75.72;101084.09;5054727;28;20021;-78
2021/01/20 04:39:23;;;;;;;47.38;23.85;;;;;;;-4.39;76.40;101088.94;5054319;28;20138;-76
2021/01/20 04:41:49;;;;;;;;;;;;;;;-4.26;74.42;101091.25;5054888;28;20096;-76
2021/01/20 04:44:14;;;;;;;59.05;27.83;;;;;;;-4.59;74.72;101080.50;5054374;28;20003;-76
2021/01/20 04:46:43;;;;;;;69.20;32.03;;;;;;;-4.24;75.15;101094.66;5056582;28;20037;-75
2021/01/20 04:49:18;;;;;;;62.92;30.23;;;;;;;-4.47;75.70;101098.47;5066051;28;20035;-75
2021/01/20 04:52:20;;;;;;;49.53;24.67;;;;;;;-4.43;75.56;101100.34;5053692;28;20033;-75
2021/01/20 04:54:51;;;;;;;;;;;;;;;-4.05;74.48;101104.69;5053404;28;20127;-76
2021/01/20 04:57:34;;;;;;;55.65;27.33;;;;;;;-4.17;74.66;101078.41;5052911;28;19917;-76
2021/01/20 04:59:59;;;;;;;67.63;31.55;;;;;;;-3.99;75.39;101101.63;5052393;28;20033;-76
2021/01/20 05:02:32;;;;;;;62.10;32.83;;;;;;;-3.66;73.97;101094.16;5053511;28;20036;-75
2021/01/20 05:05:26;;;;;;;81.97;40.88;;;;;;;-4.33;75.18;101091.72;5052548;28;20123;-75
2021/01/20 05:07:51;;;;;;;107.82;47.95;;;;;;;-4.35;75.58;101085.81;5053050;28;20029;-77
2021/01/20 05:10:23;;;;;;;96.32;46.88;;;;;;;-4.29;75.41;101075.34;5057012;28;20036;-75
2021/01/20 05:13:29;;;;;;;99.68;46.60;;;;;;;-3.81;74.26;101073.59;5056884;28;20111;-75
2021/01/20 05:15:56;;;;;;;87.47;40.53;;;;;;;-4.62;75.84;101097.72;5058461;28;20025;-77
2021/01/20 05:18:23;;;;;;;82.22;38.75;;;;;;;-4.20;75.86;101098.13;5059969;28;20041;-75
2021/01/20 05:21:14;;;;;;;73.70;35.83;;;;;;;-4.49;76.36;101128.94;5060165;28;20036;-77
2021/01/20 05:23:40;;;;;;;66.40;33.47;;;;;;;-3.96;75.12;101110.09;5056199;28;20025;-76
2021/01/20 05:26:11;;;;;;;67.00;32.22;;;;;;;-4.53;75.40;101112.19;5053502;28;20028;-77
2021/01/20 05:28:42;;;;;;;67.03;31.67;;;;;;;-3.87;75.08;101114.63;5052333;28;20052;-78
2021/01/20 05:31:25;;;;;;;71.22;33.17;;;;;;;-4.03;76.56;101117.16;5052971;28;20033;-78
2021/01/20 05:34:29;;;;;;;58.47;28.02;;;;;;;-4.07;75.37;101122.75;5053254;28;20032;-76
2021/01/20 05:37:14;;;;;;;61.63;31.25;;;;;;;-4.40;76.34;101136.84;5051734;28;20517;-76
2021/01/20 05:39:46;;;;;;;64.18;31.55;;;;;;;-4.23;76.25;101123.63;5051586;28;20083;-81
2021/01/20 05:42:15;;;;;;;62.22;31.85;;;;;;;-4.47;76.50;101124.91;5052378;28;20136;-78
2021/01/20 05:45:03;;;;;;;65.82;33.17;;;;;;;-4.33;76.48;101140.47;5052683;28;20032;-80
2021/01/20 05:50:57;;;;;;;64.00;30.20;;;;;;;-4.10;79.22;101153.25;5053315;28;20128;-77
2021/01/20 05:53:27;;;;;;;61.92;32.22;;;;;;;-4.48;76.43;101135.63;5052336;28;20092;-82
2021/01/20 05:56:36;;;;;;;65.00;33.20;;;;;;;-4.07;75.94;101145.97;5052435;28;20029;-82
2021/01/20 05:59:24;;;;;;;71.55;34.92;;;;;;;-4.19;76.26;101156.91;5052483;28;20040;-83
2021/01/20 06:02:02;;;;;;;75.28;36.85;;;;;;;-3.93;75.05;101139.19;5052375;28;20529;-80
2021/01/20 06:04:30;;;;;;;81.53;40.65;;;;;;;-3.80;75.63;101147.28;5052606;28;20052;-82
2021/01/20 06:10:22;;;;;;;79.10;40.08;;;;;;;-3.84;74.95;101128.03;5053547;28;20552;-81
2021/01/20 06:12:49;;;;;;;84.32;41.90;;;;;;;-3.68;74.82;101144.53;5068753;28;20044;-82
2021/01/20 06:16:04;;;;;;;87.80;43.42;;;;;;;-3.76;75.41;101139.19;5053182;28;20035;-80
2021/01/20 06:22:04;;;;;;;88.40;44.17;;;;;;;-3.37;74.35;101167.56;5053171;28;20198;-80
2021/01/20 06:25:13;;;;;;;100.53;51.70;;;;;;;-3.30;74.89;101166.19;5052841;28;20032;-79
2021/01/20 06:28:30;;;;;;;104.53;53.75;;;;;;;-3.29;74.13;101172.88;5052232;28;20102;-82
2021/01/20 06:31:07;;;;;;;107.38;51.42;;;;;;;-3.17;74.03;101181.72;5051402;28;20090;-81
2021/01/20 06:34:12;;;;;;;103.53;50.35;;;;;;;-3.02;73.70;101186.56;5052391;28;20082;-77
2021/01/20 06:36:50;;;;;;;90.65;43.65;;;;;;;-3.65;75.17;101176.97;5051199;28;20033;-77
2021/01/20 06:39:53;;;;;;;92.97;43.30;;;;;;;-3.23;74.65;101193.91;5067521;28;20115;-77
2021/01/20 06:45:40;;;;;;;84.05;41.88;;;;;;;-3.51;74.91;101195.88;5052107;28;20036;-79
2021/01/20 06:48:18;;;;;;;79.47;41.97;;;;;;;-3.59;75.27;101194.66;5051116;28;20021;-79
2021/01/20 06:51:05;;;;;;;89.13;44.13;;;;;;;-3.64;75.84;101209.31;5052267;28;20024;-79
2021/01/20 06:54:10;;;;;;;73.72;37.75;;;;;;;-3.21;75.17;101211.38;5051122;28;20057;-79
2021/01/20 07:00:15;;;;;;;70.28;34.90;;;;;;;-2.53;72.85;101182.13;5052543;28;20064;-78
2021/01/20 07:03:31;;;;;;;61.25;30.50;;;;;;;-3.04;73.75;101178.19;5052168;28;20025;-77
2021/01/20 07:06:39;;;;;;;61.05;30.23;;;;;;;-2.56;74.14;101172.06;5050859;28;20029;-76
2021/01/20 07:09:16;;;;;;;79.18;38.38;;;;;;;-2.37;72.44;101170.41;5051971;28;20025;-77
2021/01/20 07:15:05;;;;;;;101.87;46.87;;;;;;;-2.15;72.98;101190.47;5051981;28;20060;-78
2021/01/20 07:17:34;;;;;;;87.25;44.55;;;;;;;-2.52;72.85;101192.16;5050832;28;20526;-77
2021/01/20 07:23:23;;;;;;;100.22;52.40;;;;;;;-2.07;72.78;101186.66;5051783;28;20151;-77
2021/01/20 07:26:03;;;;;;;101.82;54.08;;;;;;;-2.23;73.16;101189.28;5050819;28;20029;-77
2021/01/20 07:29:12;;;;;;;80.53;44.42;;;;;;;-2.04;73.13;101181.78;5052059;28;20029;-77
2021/01/20 07:38:31;;;;;;;64.67;29.87;;;;;;;-1.92;73.14;101169.84;5051752;28;20035;-78
2021/01/20 07:40:56;;;;;;;81.75;38.25;;;;;;;-1.69;72.23;101173.28;5057258;28;20494;-76
2021/01/20 07:43:47;;;;;;;87.63;40.78;;;;;;;-1.55;72.56;101182.16;5062660;28;20033;-77
2021/01/20 07:46:16;;;;;;;74.22;35.50;;;;;;;-1.70;72.96;101184.03;5050678;28;20525;-78
2021/01/20 07:49:38;;;;;;;73.63;33.92;;;;;;;-1.49;72.19;101184.03;5050594;28;20268;-76
2021/01/20 07:52:09;;;;;;;74.70;38.03;;;;;;;-1.37;72.15;101189.50;5051893;28;20033;-77
2021/01/20 07:54:44;;;;;;;80.50;38.55;;;;;;;-1.39;71.05;101201.06;5051677;28;20037;-78
2021/01/20 07:57:25;;;;;;;86.97;46.08;;;;;;;-1.10;71.28;101188.94;5051638;28;20033;-78
2021/01/20 08:00:11;;;;;;;105.73;47.83;;;;;;;-1.17;70.47;101194.47;5055238;28;20025;-77
2021/01/20 08:06:00;;;;;;;112.00;53.23;;;;;;;-0.94;71.49;101197.84;5051630;28;20040;-78
2021/01/20 08:11:47;;;;;;;73.03;34.40;;;;;;;-0.62;68.70;101189.91;5051448;28;20106;-78
2021/01/20 08:14:24;;;;;;;87.93;41.28;;;;;;;-0.54;67.61;101171.06;5050486;28;20033;-78
2021/01/20 08:16:51;;;;;;;78.22;37.78;;;;;;;-0.52;68.96;101176.97;5047448;28;20049;-79
2021/01/20 08:19:23;;;;;;;77.03;39.35;;;;;;;-0.30;68.23;101178.56;5050667;28;20568;-79
2021/01/20 08:21:49;;;;;;;79.32;40.58;;;;;;;-0.16;67.55;101178.22;5051603;28;20032;-78
2021/01/20 08:24:27;;;;;;;63.47;32.67;;;;;;;0.06;67.88;101177.28;5051434;28;20041;-80
2021/01/20 08:27:37;;;;;;;54.08;26.13;;;;;;;-0.78;68.63;101189.28;5051268;28;20072;-80
2021/01/20 08:30:49;;;;;;;64.60;34.92;;;;;;;-0.08;67.46;101169.34;5050158;28;20098;-78
2021/01/20 08:33:33;;;;;;;60.83;32.00;;;;;;;-0.48;66.44;101147.94;5053646;28;20086;-79
2021/01/20 08:36:05;;;;;;;62.85;34.90;;;;;;;-0.26;66.98;101181.19;5053780;28;20036;-78
2021/01/20 08:42:15;;;;;;;75.53;36.20;;;;;;;0.27;65.86;101197.16;5054719;28;20513;-79
2021/01/20 08:45:21;;;;;;;59.20;31.60;;;;;;;0.16;65.75;101203.47;5053755;28;20033;-78
2021/01/20 08:48:30;;;;;;;56.63;31.08;;;;;;;0.35;65.18;101200.75;5054642;28;20033;-79
2021/01/20 08:50:57;;;;;;;48.90;28.17;;;;;;;0.47;66.39;101196.16;5053410;28;20040;-81
2021/01/20 08:53:27;;;;;;;46.65;26.92;;;;;;;0.48;65.15;101183.69;5054704;28;20043;-79
2021/01/20 09:02:36;;;;;;;40.77;22.33;;;;;;;0.80;65.33;101185.56;5054941;28;20063;-82
2021/01/20 09:05:09;;;;;;;71.82;35.75;;;;;;;0.54;65.83;101173.88;5053570;28;20028;-81
2021/01/20 09:10:58;;;;;;;34.78;19.38;;;;;;;0.44;65.36;101168.53;5055384;28;20048;-79
2021/01/20 09:13:34;;;;;;;48.90;27.88;;;;;;;0.82;64.34;101166.44;5069286;28;20087;-79
2021/01/20 09:16:07;;;;;;;49.30;26.83;;;;;;;0.80;64.87;101154.66;5053113;28;20402;-81
2021/01/20 09:18:49;;;;;;;57.53;31.85;;;;;;;0.94;64.64;101140.06;5054417;28;20549;-82
2021/01/20 09:21:15;;;;;;;40.17;23.23;;;;;;;1.04;64.34;101147.03;5060897;28;20016;-78
2021/01/20 09:23:59;;;;;;;44.88;24.42;;;;;;;0.81;64.50;101126.34;5065093;28;20087;-78
2021/01/20 09:26:34;;;;;;;60.00;29.10;;;;;;;1.06;64.34;101126.25;5053120;28;20037;-80
2021/01/20 09:29:28;;;;;;;40.35;21.92;;;;;;;0.97;65.28;101118.47;5054391;28;20061;-79
2021/01/20 09:35:17;;;;;;;35.40;20.52;;;;;;;1.09;64.87;101111.31;5054419;28;20043;-79
2021/01/20 09:38:21;;;;;;;42.35;21.88;;;;;;;0.85;65.04;101108.13;5052874;28;20153;-79
2021/01/20 09:44:08;;;;;;;38.03;22.08;;;;;;;1.23;63.43;101099.19;5054170;28;20166;-78
2021/01/20 09:46:43;;;;;;;56.70;30.35;;;;;;;1.32;62.34;101081.91;5052803;28;20452;-78
2021/01/20 09:49:55;;;;;;;40.13;22.80;;;;;;;1.41;63.23;101105.53;5053200;28;20036;-78
2021/01/20 09:52:27;;;;;;;;;;;;;;;1.58;62.50;101109.34;5052921;28;20036;-77
2021/01/20 09:55:49;;;;;;;39.45;20.00;;;;;;;1.34;62.31;101115.34;5054071;28;19963;-77
2021/01/20 09:58:52;;;;;;;39.95;22.85;;;;;;;1.92;60.89;101116.09;5052366;28;20037;-78
2021/01/20 10:01:18;;;;;;;43.47;25.42;;;;;;;1.71;61.40;101097.97;5052331;28;20037;-78
2021/01/20 10:03:56;;;;;;;45.22;25.05;;;;;;;1.89;61.92;101092.56;5052949;28;20028;-78
2021/01/20 10:06:22;;;;;;;45.47;25.23;;;;;;;1.64;61.30;101079.41;5052881;28;20029;-77
2021/01/20 10:08:50;;;;;;;63.97;34.65;;;;;;;2.17;60.65;101067.34;5052936;28;20032;-77
2021/01/20 10:11:49;;;;;;;48.08;26.73;;;;;;;2.42;60.88;101084.66;5053152;28;20024;-78
2021/01/20 10:14:31;;;;;;;38.88;23.10;;;;;;;2.07;60.45;101085.50;5053306;28;20032;-77
2021/01/20 10:16:56;;;;;;;39.70;23.52;;;;;;;2.08;61.41;101093.06;5050689;28;20068;-78
2021/01/20 10:19:37;;;;;;;43.10;25.00;;;;;;;1.99;60.81;101076.94;5052788;28;20502;-77
2021/01/20 10:22:35;;;;;;;39.90;23.63;;;;;;;2.11;61.11;101084.75;5052968;28;20115;-82
2021/01/20 10:25:19;;;;;;;47.92;30.00;;;;;;;2.14;60.78;101047.25;5053031;28;20521;-79
2021/01/20 10:27:46;;;;;;;35.80;20.27;;;;;;;1.97;61.14;101066.88;5051092;28;20029;-77
2021/01/20 10:30:14;;;;;;;43.78;23.48;;;;;;;2.22;60.76;101050.78;5052610;28;20250;-77
2021/01/20 10:39:11;;;;;;;40.10;21.52;;;;;;;2.34;60.30;101061.91;5053460;28;20047;-81
2021/01/20 10:41:38;;;;;;;32.95;19.33;;;;;;;2.38;60.46;101063.69;5056044;28;20029;-76
2021/01/20 10:44:06;;;;;;;31.55;20.65;;;;;;;2.16;60.23;101041.44;5070613;28;20021;-77
2021/01/20 10:49:53;;;;;;;41.92;24.50;;;;;;;2.77;60.52;101045.28;5052533;28;20075;-79
2021/01/20 10:52:38;;;;;;;37.15;22.13;;;;;;;2.77;59.80;101043.63;5051081;28;20049;-81
2021/01/20 10:58:25;;;;;;;39.28;22.88;;;;;;;2.95;59.34;101023.06;5052737;28;20036;-79
2021/01/20 11:01:07;;;;;;;37.80;22.90;;;;;;;2.70;59.71;101021.69;5052451;28;20029;-79
2021/01/20 11:03:53;;;;;;;34.85;22.35;;;;;;;2.87;58.82;101019.53;5052078;28;20029;-79
2021/01/20 11:13:11;;;;;;;47.43;28.93;;;;;;;4.39;55.15;101010.38;5052474;28;20048;-81
2021/01/20 11:16:13;;;;;;;37.05;23.27;;;;;;;4.35;54.84;101010.31;5051745;28;20424;-79
2021/01/20 11:18:47;;;;;;;39.72;23.70;;;;;;;3.81;56.00;101007.84;5055714;28;20049;-78
2021/01/20 11:21:28;;;;;;;74.05;40.35;;;;;;;3.64;56.36;100973.19;5058839;28;20039;-79
2021/01/20 11:24:12;;;;;;;59.15;33.40;;;;;;;4.02;56.28;101005.63;5061684;28;20028;-79
2021/01/20 11:26:49;;;;;;;82.78;38.40;;;;;;;3.95;57.15;101013.94;5058696;28;20036;-79
2021/01/20 11:29:15;;;;;;;44.72;27.05;;;;;;;3.70;57.30;101001.81;5062423;28;20033;-78
2021/01/20 11:31:41;;;;;;;53.40;30.45;;;;;;;3.56;58.27;101007.41;5058199;28;20530;-79
2021/01/20 11:34:08;;;;;;;53.70;30.17;;;;;;;3.47;58.57;101006.44;5054868;28;20029;-79
2021/01/20 11:36:46;;;;;;;37.00;22.45;;;;;;;3.19;58.92;100998.41;5050991;28;20029;-79
2021/01/20 11:39:11;;;;;;;54.63;30.40;;;;;;;3.26;59.01;101001.03;5050800;28;20029;-81
2021/01/20 11:41:57;;;;;;;44.92;24.48;;;;;;;3.89;57.37;100993.72;5050856;28;20033;-79
2021/01/20 11:44:57;;;;;;;50.15;27.17;;;;;;;3.57;58.14;100989.84;5050802;28;20043;-82
2021/01/20 11:48:04;;;;;;;49.70;29.45;;;;;;;3.66;57.53;100987.50;5051994;28;20518;-82
2021/01/20 11:50:46;;;;;;;35.13;21.13;;;;;;;3.45;58.09;100977.06;5051212;28;20033;-79
2021/01/20 11:54:05;;;;;;;34.85;22.17;;;;;;;3.50;58.12;100980.50;5050445;28;20033;-81
2021/01/20 11:56:35;;;;;;;39.40;22.20;;;;;;;3.50;58.69;100976.34;5052073;28;20024;-79
2021/01/20 11:59:19;;;;;;;35.97;22.13;;;;;;;3.45;58.65;100977.06;5051982;28;20035;-78
2021/01/20 12:02:08;;;;;;;34.85;21.58;;;;;;;3.40;58.53;100987.06;5051592;28;20029;-79
2021/01/20 12:04:33;;;;;;;35.72;22.00;;;;;;;3.47;58.55;100978.78;5057352;28;20008;-76
2021/01/20 12:07:12;;;;;;;36.00;22.00;;;;;;;3.62;58.76;100970.66;5063823;28;20061;-79
2021/01/20 12:09:44;;;;;;;39.67;23.05;;;;;;;3.57;58.64;100984.81;5055475;28;20032;-81
2021/01/20 12:12:17;;;;;;;44.97;25.25;;;;;;;3.70;58.67;100966.59;5066384;28;20017;-79
2021/01/20 12:14:45;;;;;;;45.00;25.13;;;;;;;3.66;58.91;100981.59;5054462;28;20057;-79
2021/01/20 12:17:11;;;;;;;40.72;23.17;;;;;;;3.54;59.56;100988.09;5053110;28;20085;-79
2021/01/20 12:20:27;;;;;;;38.35;22.17;;;;;;;3.56;59.32;100988.16;5054154;28;20025;-80
2021/01/20 12:23:02;;;;;;;30.95;18.73;;;;;;;3.53;58.97;100971.34;5055379;28;20560;-79
2021/01/20 12:25:28;;;;;;;34.28;20.05;;;;;;;3.78;58.91;100994.38;5054294;28;20021;-80
2021/01/20 12:28:05;;;;;;;34.85;20.23;;;;;;;3.82;58.17;100981.88;5055446;28;20402;-80
2021/01/20 12:31:05;;;;;;;39.72;22.13;;;;;;;3.42;59.50;100992.09;5053443;28;20418;-79
2021/01/20 12:33:31;;;;;;;37.70;22.05;;;;;;;3.54;59.05;100983.09;5055262;28;20064;-81
2021/01/20 12:36:00;;;;;;;34.33;21.30;;;;;;;3.92;58.84;100977.84;5054826;28;20053;-80
2021/01/20 12:39:15;;;;;;;42.72;24.08;;;;;;;4.01;58.27;100993.03;5055018;28;20087;-79
2021/01/20 12:45:02;;;;;;;37.25;21.58;;;;;;;4.55;56.97;100977.84;5054980;28;20056;-80
2021/01/20 12:47:38;;;;;;;41.85;23.63;;;;;;;4.54;56.42;100977.00;5054865;28;20032;-81
2021/01/20 12:50:21;;;;;;;49.63;28.25;;;;;;;4.02;58.25;100972.13;5053636;28;20025;-80
2021/01/20 12:52:50;;;;;;;42.58;23.95;;;;;;;4.55;56.39;100982.88;5054683;28;20490;-80
2021/01/20 12:55:24;;;;;;;40.08;25.20;;;;;;;4.31;57.00;100978.38;5053277;28;20035;-81
2021/01/20 12:57:53;;;;;;;40.75;24.50;;;;;;;4.78;55.65;100968.88;5053435;28;20029;-81
2021/01/20 13:00:47;;;;;;;39.55;22.70;;;;;;;5.59;54.31;100981.44;5053323;28;20032;-82
2021/01/20 13:03:37;;;;;;;33.25;19.73;;;;;;;5.48;51.81;100976.34;5054598;28;20041;-79
2021/01/20 13:06:21;;;;;;;32.08;18.38;;;;;;;5.80;52.46;100982.47;5053439;28;20126;-81
2021/01/20 13:09:19;;;;;;;37.13;22.33;;;;;;;5.27;53.90;100982.00;5054746;28;20482;-81
2021/01/20 13:12:10;;;;;;;37.45;20.50;;;;;;;4.85;54.50;100986.59;5053020;28;20128;-79
2021/01/20 13:15:10;;;;;;;33.45;21.50;;;;;;;5.56;52.46;100999.94;5054200;28;20051;-79
2021/01/20 13:17:35;;;;;;;35.03;20.80;;;;;;;5.62;52.79;100973.91;5052684;28;20053;-81
2021/01/20 13:23:22;;;;;;;34.00;20.90;;;;;;;5.08;54.34;100987.72;5054087;28;20098;-82
2021/01/20 13:25:58;;;;;;;33.45;20.70;;;;;;;4.55;56.43;100993.81;5054516;28;20020;-78
2021/01/20 13:28:26;;;;;;;33.95;20.95;;;;;;;5.13;55.90;100986.06;5072376;28;20044;-80
2021/01/20 13:31:14;;;;;;;38.13;20.75;;;;;;;4.50;56.60;100987.03;5054245;28;20069;-81
2021/01/20 13:37:01;;;;;;;33.63;20.63;;;;;;;4.44;56.62;100960.09;5053554;28;20059;-81
2021/01/20 13:39:33;;;;;;;36.92;21.88;;;;;;;4.36;57.08;100979.28;5053648;28;20029;-80
2021/01/20 13:42:23;;;;;;;37.92;21.25;;;;;;;4.78;55.22;100969.75;5067969;28;20031;-82
2021/01/20 13:48:11;;;;;;;38.88;21.90;;;;;;;4.63;55.85;100972.09;5053793;28;20060;-79
2021/01/20 13:51:16;;;;;;;38.72;22.10;;;;;;;4.55;56.88;100976.19;5053764;28;20491;-79
2021/01/20 13:53:44;;;;;;;35.17;21.10;;;;;;;4.62;56.59;100972.06;5053790;28;20033;-81